sensor_id;sensor_type;location;lat;lon;timestamp;P1;durP1;ratioP1;P2;durP2;ratioP2
8825;SDS011;4449;50.872;4.714;2023-10-19T00:04:05;3.78;;;1.65;;
8825;SDS011;4449;50.872;4.714;2023-10-19T00:06:33;1.92;;;1.13;;
8825;SDS011;4449;50.872;4.714;2023-10-19T00:09:00;1.77;;;1.33;;
8825;SDS011;4449;50.872;4.714;2023-10-19T00:11:29;1.30;;;1.20;;
8825;SDS011;4449;50.872;4.714;2023-10-19T00:13:56;1.83;;;1.30;;
8825;SDS011;4449;50.872;4.714;2023-10-19T00:16:24;2.20;;;1.30;;
8825;SDS011;4449;50.872;4.714;2023-10-19T00:18:54;1.23;;;1.10;;
8825;SDS011;4449;50.872;4.714;2023-10-19T00:21:26;2.08;;;1.23;;
8825;SDS011;4449;50.872;4.714;2023-10-19T00:23:53;2.20;;;1.20;;
8825;SDS011;4449;50.872;4.714;2023-10-19T00:26:22;1.63;;;1.30;;
8825;SDS011;4449;50.872;4.714;2023-10-19T00:28:52;1.88;;;1.10;;
8825;SDS011;4449;50.872;4.714;2023-10-19T00:31:21;2.30;;;1.30;;
8825;SDS011;4449;50.872;4.714;2023-10-19T00:33:49;2.85;;;1.20;;
8825;SDS011;4449;50.872;4.714;2023-10-19T00:36:18;2.60;;;1.48;;
8825;SDS011;4449;50.872;4.714;2023-10-19T00:38:48;1.75;;;1.30;;
8825;SDS011;4449;50.872;4.714;2023-10-19T00:41:18;1.10;;;1.10;;
8825;SDS011;4449;50.872;4.714;2023-10-19T00:43:49;2.30;;;1.23;;
8825;SDS011;4449;50.872;4.714;2023-10-19T00:46:23;1.42;;;1.33;;
8825;SDS011;4449;50.872;4.714;2023-10-19T00:48:58;1.83;;;1.40;;
8825;SDS011;4449;50.872;4.714;2023-10-19T00:51:27;2.65;;;1.13;;
8825;SDS011;4449;50.872;4.714;2023-10-19T00:54:09;2.80;;;1.40;;
8825;SDS011;4449;50.872;4.714;2023-10-19T00:56:41;2.80;;;1.50;;
8825;SDS011;4449;50.872;4.714;2023-10-19T00:59:12;1.95;;;1.38;;
8825;SDS011;4449;50.872;4.714;2023-10-19T01:01:40;3.13;;;1.48;;
8825;SDS011;4449;50.872;4.714;2023-10-19T01:04:11;2.78;;;1.67;;
8825;SDS011;4449;50.872;4.714;2023-10-19T01:06:42;1.98;;;1.30;;
8825;SDS011;4449;50.872;4.714;2023-10-19T01:09:12;1.40;;;1.20;;
8825;SDS011;4449;50.872;4.714;2023-10-19T01:11:41;2.10;;;1.40;;
8825;SDS011;4449;50.872;4.714;2023-10-19T01:14:18;1.30;;;1.10;;
8825;SDS011;4449;50.872;4.714;2023-10-19T01:16:47;3.15;;;1.40;;
8825;SDS011;4449;50.872;4.714;2023-10-19T01:19:16;2.33;;;1.23;;
8825;SDS011;4449;50.872;4.714;2023-10-19T01:21:46;1.65;;;1.30;;
8825;SDS011;4449;50.872;4.714;2023-10-19T01:24:19;2.07;;;1.30;;
8825;SDS011;4449;50.872;4.714;2023-10-19T01:26:58;1.58;;;1.20;;
8825;SDS011;4449;50.872;4.714;2023-10-19T01:29:29;1.77;;;1.10;;
8825;SDS011;4449;50.872;4.714;2023-10-19T01:31:56;2.07;;;1.47;;
8825;SDS011;4449;50.872;4.714;2023-10-19T01:34:31;2.27;;;1.33;;
8825;SDS011;4449;50.872;4.714;2023-10-19T01:37:00;3.30;;;1.45;;
8825;SDS011;4449;50.872;4.714;2023-10-19T01:39:31;4.25;;;1.60;;
8825;SDS011;4449;50.872;4.714;2023-10-19T01:42:00;4.10;;;1.30;;
8825;SDS011;4449;50.872;4.714;2023-10-19T01:44:30;2.25;;;1.50;;
8825;SDS011;4449;50.872;4.714;2023-10-19T01:46:58;1.45;;;1.30;;
8825;SDS011;4449;50.872;4.714;2023-10-19T01:49:26;2.20;;;1.60;;
8825;SDS011;4449;50.872;4.714;2023-10-19T01:51:55;2.90;;;1.40;;
8825;SDS011;4449;50.872;4.714;2023-10-19T01:54:22;3.88;;;1.58;;
8825;SDS011;4449;50.872;4.714;2023-10-19T01:56:52;2.97;;;1.42;;
8825;SDS011;4449;50.872;4.714;2023-10-19T01:59:21;2.70;;;1.55;;
8825;SDS011;4449;50.872;4.714;2023-10-19T02:01:49;2.72;;;1.65;;
8825;SDS011;4449;50.872;4.714;2023-10-19T02:04:17;1.83;;;1.58;;
8825;SDS011;4449;50.872;4.714;2023-10-19T02:06:47;1.88;;;1.33;;
8825;SDS011;4449;50.872;4.714;2023-10-19T02:09:15;3.60;;;1.42;;
8825;SDS011;4449;50.872;4.714;2023-10-19T02:11:47;6.05;;;1.67;;
8825;SDS011;4449;50.872;4.714;2023-10-19T02:14:16;2.25;;;1.40;;
8825;SDS011;4449;50.872;4.714;2023-10-19T02:16:46;4.20;;;1.40;;
8825;SDS011;4449;50.872;4.714;2023-10-19T02:19:13;2.53;;;1.50;;
8825;SDS011;4449;50.872;4.714;2023-10-19T02:21:41;3.23;;;1.53;;
8825;SDS011;4449;50.872;4.714;2023-10-19T02:24:12;4.32;;;1.85;;
8825;SDS011;4449;50.872;4.714;2023-10-19T02:26:39;2.85;;;1.58;;
8825;SDS011;4449;50.872;4.714;2023-10-19T02:29:07;3.38;;;1.40;;
8825;SDS011;4449;50.872;4.714;2023-10-19T02:31:37;2.17;;;1.70;;
8825;SDS011;4449;50.872;4.714;2023-10-19T02:34:05;2.20;;;1.77;;
8825;SDS011;4449;50.872;4.714;2023-10-19T02:36:33;4.80;;;2.00;;
8825;SDS011;4449;50.872;4.714;2023-10-19T02:39:03;3.55;;;1.88;;
8825;SDS011;4449;50.872;4.714;2023-10-19T02:41:33;4.00;;;1.80;;
8825;SDS011;4449;50.872;4.714;2023-10-19T02:44:02;2.92;;;1.95;;
8825;SDS011;4449;50.872;4.714;2023-10-19T02:46:33;5.20;;;2.03;;
8825;SDS011;4449;50.872;4.714;2023-10-19T02:49:06;4.13;;;1.98;;
8825;SDS011;4449;50.872;4.714;2023-10-19T02:51:36;5.72;;;2.20;;
8825;SDS011;4449;50.872;4.714;2023-10-19T02:54:04;4.88;;;1.90;;
8825;SDS011;4449;50.872;4.714;2023-10-19T02:56:32;5.35;;;1.70;;
8825;SDS011;4449;50.872;4.714;2023-10-19T02:59:01;5.68;;;1.88;;
8825;SDS011;4449;50.872;4.714;2023-10-19T03:01:29;4.40;;;1.90;;
8825;SDS011;4449;50.872;4.714;2023-10-19T03:03:59;6.47;;;2.30;;
8825;SDS011;4449;50.872;4.714;2023-10-19T03:06:27;4.90;;;2.10;;
8825;SDS011;4449;50.872;4.714;2023-10-19T03:08:59;3.00;;;1.60;;
8825;SDS011;4449;50.872;4.714;2023-10-19T03:11:26;4.15;;;2.00;;
8825;SDS011;4449;50.872;4.714;2023-10-19T03:13:54;3.83;;;2.30;;
8825;SDS011;4449;50.872;4.714;2023-10-19T03:16:22;3.42;;;2.05;;
8825;SDS011;4449;50.872;4.714;2023-10-19T03:18:53;4.78;;;2.20;;
8825;SDS011;4449;50.872;4.714;2023-10-19T03:21:21;5.13;;;2.90;;
8825;SDS011;4449;50.872;4.714;2023-10-19T03:23:53;4.65;;;2.03;;
8825;SDS011;4449;50.872;4.714;2023-10-19T03:26:22;3.78;;;2.10;;
8825;SDS011;4449;50.872;4.714;2023-10-19T03:28:53;4.78;;;2.25;;
8825;SDS011;4449;50.872;4.714;2023-10-19T03:31:22;4.65;;;1.90;;
8825;SDS011;4449;50.872;4.714;2023-10-19T03:33:50;6.30;;;2.47;;
8825;SDS011;4449;50.872;4.714;2023-10-19T03:36:23;4.93;;;2.40;;
8825;SDS011;4449;50.872;4.714;2023-10-19T03:38:53;6.75;;;2.50;;
8825;SDS011;4449;50.872;4.714;2023-10-19T03:41:21;4.85;;;2.33;;
8825;SDS011;4449;50.872;4.714;2023-10-19T03:43:51;5.43;;;2.40;;
8825;SDS011;4449;50.872;4.714;2023-10-19T03:46:20;4.70;;;2.13;;
8825;SDS011;4449;50.872;4.714;2023-10-19T03:48:54;4.78;;;2.30;;
8825;SDS011;4449;50.872;4.714;2023-10-19T03:51:28;5.15;;;2.22;;
8825;SDS011;4449;50.872;4.714;2023-10-19T03:54:06;4.00;;;2.15;;
8825;SDS011;4449;50.872;4.714;2023-10-19T03:56:48;7.70;;;2.58;;
8825;SDS011;4449;50.872;4.714;2023-10-19T03:59:16;6.32;;;2.53;;
8825;SDS011;4449;50.872;4.714;2023-10-19T04:01:44;5.50;;;2.40;;
8825;SDS011;4449;50.872;4.714;2023-10-19T04:04:12;4.90;;;2.17;;
8825;SDS011;4449;50.872;4.714;2023-10-19T04:06:41;5.20;;;2.15;;
8825;SDS011;4449;50.872;4.714;2023-10-19T04:09:14;5.95;;;2.20;;
8825;SDS011;4449;50.872;4.714;2023-10-19T04:11:44;6.00;;;2.33;;
8825;SDS011;4449;50.872;4.714;2023-10-19T04:14:15;6.20;;;2.60;;
8825;SDS011;4449;50.872;4.714;2023-10-19T04:16:45;4.20;;;2.33;;
8825;SDS011;4449;50.872;4.714;2023-10-19T04:19:14;5.85;;;2.90;;
8825;SDS011;4449;50.872;4.714;2023-10-19T04:21:42;4.93;;;2.00;;
8825;SDS011;4449;50.872;4.714;2023-10-19T04:24:12;5.38;;;2.33;;
8825;SDS011;4449;50.872;4.714;2023-10-19T04:26:41;7.30;;;2.72;;
8825;SDS011;4449;50.872;4.714;2023-10-19T04:29:09;5.13;;;2.47;;
8825;SDS011;4449;50.872;4.714;2023-10-19T04:31:37;5.78;;;2.40;;
8825;SDS011;4449;50.872;4.714;2023-10-19T04:34:14;4.22;;;2.20;;
8825;SDS011;4449;50.872;4.714;2023-10-19T04:36:46;6.20;;;2.42;;
8825;SDS011;4449;50.872;4.714;2023-10-19T04:39:14;7.50;;;2.33;;
8825;SDS011;4449;50.872;4.714;2023-10-19T04:41:46;7.60;;;2.38;;
8825;SDS011;4449;50.872;4.714;2023-10-19T04:44:15;7.95;;;2.35;;
8825;SDS011;4449;50.872;4.714;2023-10-19T04:46:43;7.15;;;2.70;;
8825;SDS011;4449;50.872;4.714;2023-10-19T04:49:11;6.73;;;2.70;;
8825;SDS011;4449;50.872;4.714;2023-10-19T04:51:39;8.00;;;2.47;;
8825;SDS011;4449;50.872;4.714;2023-10-19T04:54:08;9.00;;;2.67;;
8825;SDS011;4449;50.872;4.714;2023-10-19T04:56:36;6.38;;;2.58;;
8825;SDS011;4449;50.872;4.714;2023-10-19T04:59:05;5.68;;;2.50;;
8825;SDS011;4449;50.872;4.714;2023-10-19T05:01:33;8.88;;;3.13;;
8825;SDS011;4449;50.872;4.714;2023-10-19T05:04:02;4.80;;;2.30;;
8825;SDS011;4449;50.872;4.714;2023-10-19T05:06:30;7.18;;;2.40;;
8825;SDS011;4449;50.872;4.714;2023-10-19T05:08:58;8.32;;;2.83;;
8825;SDS011;4449;50.872;4.714;2023-10-19T05:11:28;5.45;;;2.50;;
8825;SDS011;4449;50.872;4.714;2023-10-19T05:13:56;5.75;;;2.50;;
8825;SDS011;4449;50.872;4.714;2023-10-19T05:16:25;6.25;;;2.47;;
8825;SDS011;4449;50.872;4.714;2023-10-19T05:18:53;6.97;;;2.30;;
8825;SDS011;4449;50.872;4.714;2023-10-19T05:21:20;8.35;;;2.28;;
8825;SDS011;4449;50.872;4.714;2023-10-19T05:23:48;6.47;;;2.47;;
8825;SDS011;4449;50.872;4.714;2023-10-19T05:26:16;9.13;;;2.50;;
8825;SDS011;4449;50.872;4.714;2023-10-19T05:28:43;8.18;;;2.80;;
8825;SDS011;4449;50.872;4.714;2023-10-19T05:31:13;8.45;;;2.78;;
8825;SDS011;4449;50.872;4.714;2023-10-19T05:33:42;10.07;;;2.95;;
8825;SDS011;4449;50.872;4.714;2023-10-19T05:36:10;7.87;;;3.07;;
8825;SDS011;4449;50.872;4.714;2023-10-19T05:38:40;8.90;;;2.95;;
8825;SDS011;4449;50.872;4.714;2023-10-19T05:41:07;6.60;;;2.90;;
8825;SDS011;4449;50.872;4.714;2023-10-19T05:43:36;6.30;;;3.00;;
8825;SDS011;4449;50.872;4.714;2023-10-19T05:46:03;7.50;;;3.15;;
8825;SDS011;4449;50.872;4.714;2023-10-19T05:48:31;8.00;;;2.88;;
8825;SDS011;4449;50.872;4.714;2023-10-19T05:51:00;4.32;;;2.83;;
8825;SDS011;4449;50.872;4.714;2023-10-19T05:53:29;9.10;;;3.13;;
8825;SDS011;4449;50.872;4.714;2023-10-19T05:55:56;8.40;;;2.97;;
8825;SDS011;4449;50.872;4.714;2023-10-19T05:58:24;7.93;;;2.90;;
8825;SDS011;4449;50.872;4.714;2023-10-19T06:00:52;7.75;;;2.92;;
8825;SDS011;4449;50.872;4.714;2023-10-19T06:03:19;8.10;;;3.08;;
8825;SDS011;4449;50.872;4.714;2023-10-19T06:05:47;8.35;;;4.28;;
8825;SDS011;4449;50.872;4.714;2023-10-19T06:08:16;8.27;;;2.92;;
8825;SDS011;4449;50.872;4.714;2023-10-19T06:10:44;7.95;;;2.70;;
8825;SDS011;4449;50.872;4.714;2023-10-19T06:13:17;7.47;;;2.70;;
8825;SDS011;4449;50.872;4.714;2023-10-19T06:15:45;6.90;;;2.87;;
8825;SDS011;4449;50.872;4.714;2023-10-19T06:18:13;6.78;;;2.85;;
8825;SDS011;4449;50.872;4.714;2023-10-19T06:20:42;7.13;;;2.60;;
8825;SDS011;4449;50.872;4.714;2023-10-19T06:23:10;8.57;;;2.85;;
8825;SDS011;4449;50.872;4.714;2023-10-19T06:25:40;10.15;;;3.05;;
8825;SDS011;4449;50.872;4.714;2023-10-19T06:28:08;7.03;;;3.05;;
8825;SDS011;4449;50.872;4.714;2023-10-19T06:30:36;7.35;;;2.78;;
8825;SDS011;4449;50.872;4.714;2023-10-19T06:33:05;7.45;;;3.05;;
8825;SDS011;4449;50.872;4.714;2023-10-19T06:35:33;8.65;;;2.97;;
8825;SDS011;4449;50.872;4.714;2023-10-19T06:38:02;9.15;;;3.03;;
8825;SDS011;4449;50.872;4.714;2023-10-19T06:40:30;7.75;;;2.97;;
8825;SDS011;4449;50.872;4.714;2023-10-19T06:43:00;9.93;;;2.90;;
8825;SDS011;4449;50.872;4.714;2023-10-19T06:45:28;8.73;;;2.95;;
8825;SDS011;4449;50.872;4.714;2023-10-19T06:47:56;7.82;;;3.05;;
8825;SDS011;4449;50.872;4.714;2023-10-19T06:50:25;8.40;;;3.38;;
8825;SDS011;4449;50.872;4.714;2023-10-19T06:52:53;6.30;;;3.10;;
8825;SDS011;4449;50.872;4.714;2023-10-19T06:55:21;7.43;;;3.00;;
8825;SDS011;4449;50.872;4.714;2023-10-19T06:57:50;9.05;;;2.97;;
8825;SDS011;4449;50.872;4.714;2023-10-19T07:00:20;6.07;;;2.72;;
8825;SDS011;4449;50.872;4.714;2023-10-19T07:02:48;9.52;;;3.17;;
8825;SDS011;4449;50.872;4.714;2023-10-19T07:05:17;8.65;;;2.85;;
8825;SDS011;4449;50.872;4.714;2023-10-19T07:07:47;7.70;;;3.10;;
8825;SDS011;4449;50.872;4.714;2023-10-19T07:10:17;9.20;;;2.83;;
8825;SDS011;4449;50.872;4.714;2023-10-19T07:12:47;6.70;;;2.88;;
8825;SDS011;4449;50.872;4.714;2023-10-19T07:15:15;8.85;;;3.03;;
8825;SDS011;4449;50.872;4.714;2023-10-19T07:17:46;10.13;;;3.15;;
8825;SDS011;4449;50.872;4.714;2023-10-19T07:20:14;9.07;;;3.40;;
8825;SDS011;4449;50.872;4.714;2023-10-19T07:22:50;7.63;;;3.03;;
8825;SDS011;4449;50.872;4.714;2023-10-19T07:25:19;8.55;;;3.13;;
8825;SDS011;4449;50.872;4.714;2023-10-19T07:27:47;9.95;;;3.30;;
8825;SDS011;4449;50.872;4.714;2023-10-19T07:30:15;9.43;;;3.42;;
8825;SDS011;4449;50.872;4.714;2023-10-19T07:32:48;8.80;;;2.60;;
8825;SDS011;4449;50.872;4.714;2023-10-19T07:35:23;9.60;;;3.25;;
8825;SDS011;4449;50.872;4.714;2023-10-19T07:37:51;8.50;;;3.00;;
8825;SDS011;4449;50.872;4.714;2023-10-19T07:40:19;9.18;;;3.13;;
8825;SDS011;4449;50.872;4.714;2023-10-19T07:42:48;10.18;;;3.15;;
8825;SDS011;4449;50.872;4.714;2023-10-19T07:45:17;8.05;;;2.90;;
8825;SDS011;4449;50.872;4.714;2023-10-19T07:47:45;9.82;;;3.45;;
8825;SDS011;4449;50.872;4.714;2023-10-19T07:50:14;6.05;;;2.75;;
8825;SDS011;4449;50.872;4.714;2023-10-19T07:52:42;7.20;;;3.33;;
8825;SDS011;4449;50.872;4.714;2023-10-19T07:55:11;8.67;;;3.03;;
8825;SDS011;4449;50.872;4.714;2023-10-19T07:57:39;7.65;;;2.90;;
8825;SDS011;4449;50.872;4.714;2023-10-19T08:00:07;9.57;;;3.20;;
8825;SDS011;4449;50.872;4.714;2023-10-19T08:02:36;10.43;;;3.10;;
8825;SDS011;4449;50.872;4.714;2023-10-19T08:05:06;7.70;;;2.95;;
8825;SDS011;4449;50.872;4.714;2023-10-19T08:07:35;9.82;;;4.00;;
8825;SDS011;4449;50.872;4.714;2023-10-19T08:10:05;9.18;;;2.95;;
8825;SDS011;4449;50.872;4.714;2023-10-19T08:12:34;7.70;;;3.03;;
8825;SDS011;4449;50.872;4.714;2023-10-19T08:15:03;9.68;;;3.45;;
8825;SDS011;4449;50.872;4.714;2023-10-19T08:17:32;6.88;;;3.00;;
8825;SDS011;4449;50.872;4.714;2023-10-19T08:20:00;8.43;;;2.88;;
8825;SDS011;4449;50.872;4.714;2023-10-19T08:22:29;7.20;;;3.10;;
8825;SDS011;4449;50.872;4.714;2023-10-19T08:24:58;9.43;;;3.28;;
8825;SDS011;4449;50.872;4.714;2023-10-19T08:27:26;9.02;;;2.95;;
8825;SDS011;4449;50.872;4.714;2023-10-19T08:29:55;9.20;;;3.45;;
8825;SDS011;4449;50.872;4.714;2023-10-19T08:32:22;9.18;;;3.35;;
8825;SDS011;4449;50.872;4.714;2023-10-19T08:34:50;6.20;;;3.30;;
8825;SDS011;4449;50.872;4.714;2023-10-19T08:37:18;10.75;;;3.47;;
8825;SDS011;4449;50.872;4.714;2023-10-19T08:39:45;9.10;;;3.22;;
8825;SDS011;4449;50.872;4.714;2023-10-19T08:42:15;10.55;;;3.22;;
8825;SDS011;4449;50.872;4.714;2023-10-19T08:44:43;7.32;;;3.08;;
8825;SDS011;4449;50.872;4.714;2023-10-19T08:47:10;8.57;;;2.97;;
8825;SDS011;4449;50.872;4.714;2023-10-19T08:49:38;9.30;;;2.92;;
8825;SDS011;4449;50.872;4.714;2023-10-19T08:52:06;10.27;;;2.80;;
8825;SDS011;4449;50.872;4.714;2023-10-19T08:54:34;10.07;;;3.60;;
8825;SDS011;4449;50.872;4.714;2023-10-19T08:57:02;7.63;;;3.35;;
8825;SDS011;4449;50.872;4.714;2023-10-19T08:59:31;9.10;;;3.27;;
8825;SDS011;4449;50.872;4.714;2023-10-19T09:02:00;8.85;;;3.63;;
8825;SDS011;4449;50.872;4.714;2023-10-19T09:04:28;7.82;;;3.33;;
8825;SDS011;4449;50.872;4.714;2023-10-19T09:06:56;7.18;;;2.88;;
8825;SDS011;4449;50.872;4.714;2023-10-19T09:09:26;10.75;;;3.40;;
8825;SDS011;4449;50.872;4.714;2023-10-19T09:11:58;8.85;;;3.63;;
8825;SDS011;4449;50.872;4.714;2023-10-19T09:14:32;8.27;;;3.15;;
8825;SDS011;4449;50.872;4.714;2023-10-19T09:17:01;8.95;;;3.35;;
8825;SDS011;4449;50.872;4.714;2023-10-19T09:19:36;7.93;;;3.30;;
8825;SDS011;4449;50.872;4.714;2023-10-19T09:35:05;8.65;;;3.00;;
8825;SDS011;4449;50.872;4.714;2023-10-19T09:37:35;10.93;;;3.08;;
8825;SDS011;4449;50.872;4.714;2023-10-19T09:40:03;10.02;;;3.45;;
8825;SDS011;4449;50.872;4.714;2023-10-19T09:42:37;8.38;;;2.95;;
8825;SDS011;4449;50.872;4.714;2023-10-19T09:45:08;10.43;;;2.95;;
8825;SDS011;4449;50.872;4.714;2023-10-19T09:47:38;11.43;;;3.50;;
8825;SDS011;4449;50.872;4.714;2023-10-19T09:50:08;7.70;;;3.22;;
8825;SDS011;4449;50.872;4.714;2023-10-19T09:52:36;7.32;;;3.20;;
8825;SDS011;4449;50.872;4.714;2023-10-19T09:55:06;8.95;;;3.13;;
8825;SDS011;4449;50.872;4.714;2023-10-19T09:57:36;9.27;;;2.90;;
8825;SDS011;4449;50.872;4.714;2023-10-19T10:00:05;10.93;;;3.60;;
8825;SDS011;4449;50.872;4.714;2023-10-19T10:02:38;13.30;;;3.58;;
8825;SDS011;4449;50.872;4.714;2023-10-19T10:10:34;12.20;;;3.33;;
8825;SDS011;4449;50.872;4.714;2023-10-19T10:15:45;10.03;;;3.77;;
8825;SDS011;4449;50.872;4.714;2023-10-19T10:18:16;8.93;;;3.40;;
8825;SDS011;4449;50.872;4.714;2023-10-19T10:20:44;9.80;;;3.00;;
8825;SDS011;4449;50.872;4.714;2023-10-19T10:23:16;8.25;;;3.55;;
8825;SDS011;4449;50.872;4.714;2023-10-19T10:25:48;9.20;;;3.22;;
8825;SDS011;4449;50.872;4.714;2023-10-19T10:28:19;9.07;;;3.33;;
8825;SDS011;4449;50.872;4.714;2023-10-19T10:31:07;10.15;;;3.28;;
8825;SDS011;4449;50.872;4.714;2023-10-19T10:33:39;10.10;;;3.40;;
8825;SDS011;4449;50.872;4.714;2023-10-19T10:36:06;8.20;;;3.20;;
8825;SDS011;4449;50.872;4.714;2023-10-19T10:38:36;9.57;;;3.10;;
8825;SDS011;4449;50.872;4.714;2023-10-19T10:41:06;7.70;;;3.05;;
8825;SDS011;4449;50.872;4.714;2023-10-19T10:43:49;9.07;;;3.25;;
8825;SDS011;4449;50.872;4.714;2023-10-19T10:46:18;9.65;;;3.20;;
8825;SDS011;4449;50.872;4.714;2023-10-19T10:48:46;8.43;;;3.00;;
8825;SDS011;4449;50.872;4.714;2023-10-19T10:51:15;9.63;;;3.28;;
8825;SDS011;4449;50.872;4.714;2023-10-19T10:53:43;7.47;;;3.15;;
8825;SDS011;4449;50.872;4.714;2023-10-19T10:56:13;8.18;;;3.22;;
8825;SDS011;4449;50.872;4.714;2023-10-19T10:58:40;7.93;;;3.08;;
8825;SDS011;4449;50.872;4.714;2023-10-19T11:01:08;11.93;;;3.20;;
8825;SDS011;4449;50.872;4.714;2023-10-19T11:03:36;8.45;;;3.17;;
8825;SDS011;4449;50.872;4.714;2023-10-19T11:06:05;11.63;;;3.58;;
8825;SDS011;4449;50.872;4.714;2023-10-19T11:08:34;7.88;;;3.45;;
8825;SDS011;4449;50.872;4.714;2023-10-19T11:11:02;8.70;;;3.50;;
8825;SDS011;4449;50.872;4.714;2023-10-19T11:13:32;8.40;;;3.00;;
8825;SDS011;4449;50.872;4.714;2023-10-19T11:16:02;7.13;;;3.30;;
8825;SDS011;4449;50.872;4.714;2023-10-19T11:18:34;7.40;;;3.00;;
8825;SDS011;4449;50.872;4.714;2023-10-19T12:20:14;10.45;;;3.13;;
8825;SDS011;4449;50.872;4.714;2023-10-19T12:22:47;7.13;;;2.78;;
8825;SDS011;4449;50.872;4.714;2023-10-19T12:25:17;7.05;;;3.17;;
8825;SDS011;4449;50.872;4.714;2023-10-19T12:27:45;6.45;;;3.25;;
8825;SDS011;4449;50.872;4.714;2023-10-19T12:30:13;5.97;;;2.60;;
8825;SDS011;4449;50.872;4.714;2023-10-19T12:32:45;9.20;;;3.20;;
8825;SDS011;4449;50.872;4.714;2023-10-19T12:35:16;6.35;;;2.80;;
8825;SDS011;4449;50.872;4.714;2023-10-19T12:37:45;6.28;;;3.13;;
8825;SDS011;4449;50.872;4.714;2023-10-19T12:40:16;7.18;;;3.22;;
8825;SDS011;4449;50.872;4.714;2023-10-19T12:42:54;7.65;;;2.92;;
8825;SDS011;4449;50.872;4.714;2023-10-19T12:45:23;4.35;;;2.53;;
8825;SDS011;4449;50.872;4.714;2023-10-19T12:47:51;7.00;;;2.95;;
8825;SDS011;4449;50.872;4.714;2023-10-19T12:50:21;4.82;;;2.15;;
8825;SDS011;4449;50.872;4.714;2023-10-19T12:52:49;3.42;;;2.03;;
8825;SDS011;4449;50.872;4.714;2023-10-19T12:55:17;4.72;;;2.45;;
8825;SDS011;4449;50.872;4.714;2023-10-19T12:57:45;3.65;;;2.15;;
8825;SDS011;4449;50.872;4.714;2023-10-19T13:00:13;2.92;;;1.90;;
8825;SDS011;4449;50.872;4.714;2023-10-19T13:02:51;2.90;;;2.03;;
8825;SDS011;4449;50.872;4.714;2023-10-19T13:05:27;4.50;;;2.33;;
8825;SDS011;4449;50.872;4.714;2023-10-19T13:07:54;3.47;;;1.98;;
8825;SDS011;4449;50.872;4.714;2023-10-19T13:10:27;3.63;;;2.13;;
8825;SDS011;4449;50.872;4.714;2023-10-19T13:12:58;2.53;;;1.80;;
8825;SDS011;4449;50.872;4.714;2023-10-19T13:15:29;3.20;;;2.00;;
8825;SDS011;4449;50.872;4.714;2023-10-19T13:17:57;2.28;;;1.63;;
8825;SDS011;4449;50.872;4.714;2023-10-19T13:20:27;2.27;;;1.70;;
8825;SDS011;4449;50.872;4.714;2023-10-19T13:22:59;1.70;;;1.60;;
8825;SDS011;4449;50.872;4.714;2023-10-19T13:25:28;1.95;;;1.50;;
8825;SDS011;4449;50.872;4.714;2023-10-19T13:28:10;2.65;;;2.00;;
8825;SDS011;4449;50.872;4.714;2023-10-19T13:30:38;3.47;;;1.88;;
8825;SDS011;4449;50.872;4.714;2023-10-19T13:33:06;1.60;;;1.50;;
8825;SDS011;4449;50.872;4.714;2023-10-19T13:35:36;3.47;;;1.90;;
8825;SDS011;4449;50.872;4.714;2023-10-19T13:38:05;3.03;;;1.50;;
8825;SDS011;4449;50.872;4.714;2023-10-19T13:40:33;2.00;;;1.50;;
8825;SDS011;4449;50.872;4.714;2023-10-19T13:43:01;1.33;;;1.33;;
8825;SDS011;4449;50.872;4.714;2023-10-19T13:45:32;1.95;;;1.40;;
8825;SDS011;4449;50.872;4.714;2023-10-19T13:48:00;1.60;;;1.45;;
8825;SDS011;4449;50.872;4.714;2023-10-19T13:50:28;1.88;;;1.58;;
8825;SDS011;4449;50.872;4.714;2023-10-19T13:52:57;2.20;;;1.60;;
8825;SDS011;4449;50.872;4.714;2023-10-19T13:55:26;1.50;;;1.40;;
8825;SDS011;4449;50.872;4.714;2023-10-19T13:57:54;1.60;;;1.50;;
8825;SDS011;4449;50.872;4.714;2023-10-19T14:00:22;1.40;;;1.30;;
8825;SDS011;4449;50.872;4.714;2023-10-19T14:02:50;2.10;;;1.40;;
8825;SDS011;4449;50.872;4.714;2023-10-19T14:05:19;1.50;;;1.40;;
8825;SDS011;4449;50.872;4.714;2023-10-19T14:07:49;1.55;;;1.25;;
8825;SDS011;4449;50.872;4.714;2023-10-19T14:10:19;1.55;;;1.30;;
8825;SDS011;4449;50.872;4.714;2023-10-19T14:12:47;1.70;;;1.60;;
8825;SDS011;4449;50.872;4.714;2023-10-19T14:15:16;1.58;;;1.20;;
8825;SDS011;4449;50.872;4.714;2023-10-19T14:17:44;2.22;;;1.65;;
8825;SDS011;4449;50.872;4.714;2023-10-19T14:20:12;1.48;;;1.40;;
8825;SDS011;4449;50.872;4.714;2023-10-19T14:22:40;1.50;;;1.30;;
8825;SDS011;4449;50.872;4.714;2023-10-19T14:25:08;2.53;;;1.40;;
8825;SDS011;4449;50.872;4.714;2023-10-19T14:27:40;1.90;;;1.50;;
8825;SDS011;4449;50.872;4.714;2023-10-19T14:30:12;2.23;;;1.60;;
8825;SDS011;4449;50.872;4.714;2023-10-19T14:32:40;1.50;;;1.40;;
8825;SDS011;4449;50.872;4.714;2023-10-19T14:35:08;1.42;;;1.33;;
8825;SDS011;4449;50.872;4.714;2023-10-19T14:37:37;2.10;;;1.90;;
8825;SDS011;4449;50.872;4.714;2023-10-19T14:42:35;1.67;;;1.50;;
8825;SDS011;4449;50.872;4.714;2023-10-19T14:45:06;1.40;;;1.30;;
8825;SDS011;4449;50.872;4.714;2023-10-19T14:47:35;1.45;;;1.35;;
8825;SDS011;4449;50.872;4.714;2023-10-19T14:50:06;1.38;;;1.27;;
8825;SDS011;4449;50.872;4.714;2023-10-19T14:52:35;1.60;;;1.40;;
8825;SDS011;4449;50.872;4.714;2023-10-19T14:55:03;1.40;;;1.30;;
8825;SDS011;4449;50.872;4.714;2023-10-19T14:57:31;1.98;;;1.38;;
8825;SDS011;4449;50.872;4.714;2023-10-19T14:59:59;1.50;;;1.40;;
8825;SDS011;4449;50.872;4.714;2023-10-19T15:02:36;1.47;;;1.47;;
8825;SDS011;4449;50.872;4.714;2023-10-19T15:05:05;1.33;;;1.23;;
8825;SDS011;4449;50.872;4.714;2023-10-19T15:07:33;1.40;;;1.30;;
8825;SDS011;4449;50.872;4.714;2023-10-19T15:10:02;1.50;;;1.40;;
8825;SDS011;4449;50.872;4.714;2023-10-19T15:12:30;1.53;;;1.30;;
8825;SDS011;4449;50.872;4.714;2023-10-19T15:14:57;2.53;;;1.63;;
8825;SDS011;4449;50.872;4.714;2023-10-19T15:17:25;1.63;;;1.40;;
8825;SDS011;4449;50.872;4.714;2023-10-19T15:19:54;1.50;;;1.45;;
8825;SDS011;4449;50.872;4.714;2023-10-19T15:22:23;1.42;;;1.33;;
8825;SDS011;4449;50.872;4.714;2023-10-19T15:24:51;1.75;;;1.48;;
8825;SDS011;4449;50.872;4.714;2023-10-19T15:27:18;2.13;;;1.35;;
8825;SDS011;4449;50.872;4.714;2023-10-19T15:29:46;1.40;;;1.30;;
8825;SDS011;4449;50.872;4.714;2023-10-19T15:32:14;1.40;;;1.33;;
8825;SDS011;4449;50.872;4.714;2023-10-19T15:50:37;1.60;;;1.50;;
8825;SDS011;4449;50.872;4.714;2023-10-19T15:53:06;1.67;;;1.58;;
8825;SDS011;4449;50.872;4.714;2023-10-19T15:55:35;1.50;;;1.50;;
8825;SDS011;4449;50.872;4.714;2023-10-19T15:58:02;1.73;;;1.60;;
8825;SDS011;4449;50.872;4.714;2023-10-19T16:00:30;1.67;;;1.58;;
8825;SDS011;4449;50.872;4.714;2023-10-19T16:02:58;1.55;;;1.33;;
8825;SDS011;4449;50.872;4.714;2023-10-19T16:05:26;1.67;;;1.58;;
8825;SDS011;4449;50.872;4.714;2023-10-19T16:07:55;1.75;;;1.65;;
8825;SDS011;4449;50.872;4.714;2023-10-19T16:10:23;1.67;;;1.57;;
8825;SDS011;4449;50.872;4.714;2023-10-19T16:12:50;4.80;;;1.90;;
8825;SDS011;4449;50.872;4.714;2023-10-19T16:15:18;2.53;;;1.73;;
8825;SDS011;4449;50.872;4.714;2023-10-19T16:17:46;1.80;;;1.70;;
8825;SDS011;4449;50.872;4.714;2023-10-19T16:20:15;2.25;;;1.70;;
8825;SDS011;4449;50.872;4.714;2023-10-19T16:22:43;1.83;;;1.73;;
8825;SDS011;4449;50.872;4.714;2023-10-19T16:25:14;2.80;;;2.03;;
8825;SDS011;4449;50.872;4.714;2023-10-19T16:27:43;1.83;;;1.65;;
8825;SDS011;4449;50.872;4.714;2023-10-19T16:30:11;2.00;;;1.80;;
8825;SDS011;4449;50.872;4.714;2023-10-19T16:32:39;1.90;;;1.70;;
8825;SDS011;4449;50.872;4.714;2023-10-19T16:35:07;3.00;;;1.98;;
8825;SDS011;4449;50.872;4.714;2023-10-19T16:37:35;2.35;;;2.03;;
8825;SDS011;4449;50.872;4.714;2023-10-19T16:40:03;1.90;;;1.70;;
8825;SDS011;4449;50.872;4.714;2023-10-19T16:42:33;2.00;;;1.90;;
8825;SDS011;4449;50.872;4.714;2023-10-19T16:45:00;3.33;;;2.10;;
8825;SDS011;4449;50.872;4.714;2023-10-19T16:47:31;2.25;;;1.98;;
8825;SDS011;4449;50.872;4.714;2023-10-19T16:50:00;1.90;;;1.80;;
8825;SDS011;4449;50.872;4.714;2023-10-19T16:52:28;2.15;;;1.95;;
8825;SDS011;4449;50.872;4.714;2023-10-19T16:54:57;1.95;;;1.95;;
8825;SDS011;4449;50.872;4.714;2023-10-19T16:57:24;1.90;;;1.67;;
8825;SDS011;4449;50.872;4.714;2023-10-19T16:59:54;2.17;;;1.85;;
8825;SDS011;4449;50.872;4.714;2023-10-19T17:02:22;2.40;;;2.03;;
8825;SDS011;4449;50.872;4.714;2023-10-19T17:04:50;1.85;;;1.80;;
8825;SDS011;4449;50.872;4.714;2023-10-19T17:07:18;1.90;;;1.77;;
8825;SDS011;4449;50.872;4.714;2023-10-19T17:09:46;2.20;;;2.00;;